sensor_id;sensor_type;location;lat;lon;timestamp;pressure;altitude;pressure_sealevel;temperature;humidity
56334;BME280;42240;53.626;55.886;2022-12-07T00:00:40;82691.38;;;-145.10;100.00
56334;BME280;42240;53.626;55.886;2022-12-07T00:02:14;82683.44;;;-145.10;100.00
56334;BME280;42240;53.626;55.886;2022-12-07T00:03:49;82679.47;;;-145.10;100.00
56334;BME280;42240;53.626;55.886;2022-12-07T00:05:24;82683.44;;;-145.10;100.00
56334;BME280;42240;53.626;55.886;2022-12-07T00:06:58;82677.50;;;-145.10;100.00
56334;BME280;42240;53.626;55.886;2022-12-07T00:08:35;82681.47;;;-145.10;100.00
56334;BME280;42240;53.626;55.886;2022-12-07T00:10:08;82683.44;;;-145.10;100.00
56334;BME280;42240;53.626;55.886;2022-12-07T00:11:42;82681.47;;;-145.10;100.00
56334;BME280;42240;53.626;55.886;2022-12-07T00:13:16;82687.41;;;-145.10;100.00
56334;BME280;42240;53.626;55.886;2022-12-07T00:14:50;82677.50;;;-145.10;100.00
56334;BME280;42240;53.626;55.886;2022-12-07T00:16:27;82681.47;;;-145.10;100.00
56334;BME280;42240;53.626;55.886;2022-12-07T00:18:01;82679.47;;;-145.10;100.00
56334;BME280;42240;53.626;55.886;2022-12-07T00:19:34;82677.50;;;-145.10;100.00
56334;BME280;42240;53.626;55.886;2022-12-07T00:21:29;82675.53;;;-145.10;100.00
56334;BME280;42240;53.626;55.886;2022-12-07T00:23:03;82683.44;;;-145.10;100.00
56334;BME280;42240;53.626;55.886;2022-12-07T00:24:36;82695.31;;;-145.10;100.00
56334;BME280;42240;53.626;55.886;2022-12-07T00:26:13;82687.41;;;-145.10;100.00
56334;BME280;42240;53.626;55.886;2022-12-07T00:27:48;82693.34;;;-145.10;100.00
56334;BME280;42240;53.626;55.886;2022-12-07T00:29:21;82699.28;;;-145.10;100.00
56334;BME280;42240;53.626;55.886;2022-12-07T00:31:01;82689.38;;;-145.10;100.00
56334;BME280;42240;53.626;55.886;2022-12-07T00:32:35;82732.94;;;-145.10;100.00
56334;BME280;42240;53.626;55.886;2022-12-07T00:34:14;82675.53;;;-145.10;100.00
56334;BME280;42240;53.626;55.886;2022-12-07T00:35:55;82675.53;;;-145.10;100.00
56334;BME280;42240;53.626;55.886;2022-12-07T00:37:28;82689.38;;;-145.10;100.00
56334;BME280;42240;53.626;55.886;2022-12-07T00:39:02;82689.38;;;-145.10;100.00
56334;BME280;42240;53.626;55.886;2022-12-07T00:40:36;82709.19;;;-145.10;100.00
56334;BME280;42240;53.626;55.886;2022-12-07T00:42:10;82695.31;;;-145.10;100.00
56334;BME280;42240;53.626;55.886;2022-12-07T00:43:44;82683.44;;;-145.10;100.00
56334;BME280;42240;53.626;55.886;2022-12-07T00:45:19;82667.59;;;-145.10;100.00
56334;BME280;42240;53.626;55.886;2022-12-07T00:46:53;82655.72;;;-145.10;100.00
56334;BME280;42240;53.626;55.886;2022-12-07T00:48:27;82671.56;;;-145.10;100.00
56334;BME280;42240;53.626;55.886;2022-12-07T00:50:01;82669.59;;;-145.10;100.00
56334;BME280;42240;53.626;55.886;2022-12-07T00:51:35;82665.63;;;-145.10;100.00
56334;BME280;42240;53.626;55.886;2022-12-07T00:53:09;82647.78;;;-145.10;100.00
56334;BME280;42240;53.626;55.886;2022-12-07T00:54:42;82643.84;;;-145.10;100.00
56334;BME280;42240;53.626;55.886;2022-12-07T00:56:22;82626.00;;;-145.10;100.00
56334;BME280;42240;53.626;55.886;2022-12-07T00:57:56;82631.94;;;-145.10;100.00
56334;BME280;42240;53.626;55.886;2022-12-07T00:59:29;82628.00;;;-145.10;100.00
56334;BME280;42240;53.626;55.886;2022-12-07T01:01:04;82631.94;;;-145.10;100.00
56334;BME280;42240;53.626;55.886;2022-12-07T01:02:38;82637.91;;;-145.10;100.00
56334;BME280;42240;53.626;55.886;2022-12-07T01:04:12;82620.06;;;-145.10;100.00
56334;BME280;42240;53.626;55.886;2022-12-07T01:05:53;82639.88;;;-145.10;100.00
56334;BME280;42240;53.626;55.886;2022-12-07T01:07:27;82626.00;;;-145.10;100.00
56334;BME280;42240;53.626;55.886;2022-12-07T01:09:02;82608.19;;;-145.10;100.00
56334;BME280;42240;53.626;55.886;2022-12-07T01:10:37;82616.09;;;-145.10;100.00
56334;BME280;42240;53.626;55.886;2022-12-07T01:12:10;82620.06;;;-145.10;100.00
56334;BME280;42240;53.626;55.886;2022-12-07T01:13:44;82614.13;;;-145.10;100.00
56334;BME280;42240;53.626;55.886;2022-12-07T01:15:18;82659.69;;;-145.10;100.00
56334;BME280;42240;53.626;55.886;2022-12-07T01:16:52;82622.06;;;-145.10;100.00
56334;BME280;42240;53.626;55.886;2022-12-07T01:18:30;82643.84;;;-145.10;100.00
56334;BME280;42240;53.626;55.886;2022-12-07T01:20:05;82651.75;;;-145.10;100.00
56334;BME280;42240;53.626;55.886;2022-12-07T01:21:39;82631.94;;;-145.10;100.00
56334;BME280;42240;53.626;55.886;2022-12-07T01:23:12;82624.03;;;-145.10;100.00
56334;BME280;42240;53.626;55.886;2022-12-07T01:24:46;82596.31;;;-145.10;100.00
56334;BME280;42240;53.626;55.886;2022-12-07T01:26:23;82612.16;;;-145.10;100.00
56334;BME280;42240;53.626;55.886;2022-12-07T01:27:56;82596.31;;;-145.10;100.00
56334;BME280;42240;53.626;55.886;2022-12-07T01:29:30;82582.44;;;-145.10;100.00
56334;BME280;42240;53.626;55.886;2022-12-07T01:31:09;82588.38;;;-145.10;100.00
56334;BME280;42240;53.626;55.886;2022-12-07T01:32:44;82582.44;;;-145.10;100.00
56334;BME280;42240;53.626;55.886;2022-12-07T01:34:18;82574.53;;;-145.10;100.00
56334;BME280;42240;53.626;55.886;2022-12-07T01:35:51;82584.44;;;-145.10;100.00
56334;BME280;42240;53.626;55.886;2022-12-07T01:37:28;82596.31;;;-145.10;100.00
56334;BME280;42240;53.626;55.886;2022-12-07T01:39:05;82596.31;;;-145.10;100.00
56334;BME280;42240;53.626;55.886;2022-12-07T01:40:39;82596.31;;;-145.10;100.00
56334;BME280;42240;53.626;55.886;2022-12-07T01:42:13;82602.25;;;-145.10;100.00
56334;BME280;42240;53.626;55.886;2022-12-07T01:45:42;82629.97;;;-145.10;100.00
56334;BME280;42240;53.626;55.886;2022-12-07T01:47:16;82598.28;;;-145.10;100.00
56334;BME280;42240;53.626;55.886;2022-12-07T01:48:49;82612.16;;;-145.10;100.00
56334;BME280;42240;53.626;55.886;2022-12-07T01:50:26;82600.25;;;-145.10;100.00
56334;BME280;42240;53.626;55.886;2022-12-07T01:52:13;82586.41;;;-145.10;100.00
56334;BME280;42240;53.626;55.886;2022-12-07T01:53:48;82588.38;;;-145.10;100.00
56334;BME280;42240;53.626;55.886;2022-12-07T01:55:22;82596.31;;;-145.10;100.00
56334;BME280;42240;53.626;55.886;2022-12-07T01:56:57;82596.31;;;-145.10;100.00
56334;BME280;42240;53.626;55.886;2022-12-07T01:58:31;82604.22;;;-145.10;100.00
56334;BME280;42240;53.626;55.886;2022-12-07T02:00:06;82602.25;;;-145.10;100.00
56334;BME280;42240;53.626;55.886;2022-12-07T02:01:46;82600.25;;;-145.10;100.00
56334;BME280;42240;53.626;55.886;2022-12-07T02:03:25;82655.72;;;-145.10;100.00
56334;BME280;42240;53.626;55.886;2022-12-07T02:05:03;82602.25;;;-145.10;100.00
56334;BME280;42240;53.626;55.886;2022-12-07T02:06:38;82604.22;;;-145.10;100.00
56334;BME280;42240;53.626;55.886;2022-12-07T02:08:12;82596.31;;;-145.10;100.00
56334;BME280;42240;53.626;55.886;2022-12-07T02:09:45;82590.38;;;-145.10;100.00
56334;BME280;42240;53.626;55.886;2022-12-07T02:11:20;82590.38;;;-145.10;100.00
56334;BME280;42240;53.626;55.886;2022-12-07T02:14:37;82586.41;;;-145.10;100.00
56334;BME280;42240;53.626;55.886;2022-12-07T02:20:11;82598.28;;;-145.10;100.00
56334;BME280;42240;53.626;55.886;2022-12-07T02:27:47;82663.63;;;-145.10;100.00
56334;BME280;42240;53.626;55.886;2022-12-07T02:29:46;82681.47;;;-145.10;100.00
56334;BME280;42240;53.626;55.886;2022-12-07T02:31:23;82663.63;;;-145.10;100.00
56334;BME280;42240;53.626;55.886;2022-12-07T02:33:14;82639.88;;;-145.10;100.00
56334;BME280;42240;53.626;55.886;2022-12-07T02:35:05;82675.53;;;-145.10;100.00
56334;BME280;42240;53.626;55.886;2022-12-07T02:36:44;82610.16;;;-145.10;100.00
56334;BME280;42240;53.626;55.886;2022-12-07T02:38:31;82610.16;;;-145.10;100.00
56334;BME280;42240;53.626;55.886;2022-12-07T02:40:15;82618.09;;;-145.10;100.00
56334;BME280;42240;53.626;55.886;2022-12-07T02:41:52;82620.06;;;-145.10;100.00
56334;BME280;42240;53.626;55.886;2022-12-07T02:43:29;82635.91;;;-145.10;100.00
56334;BME280;42240;53.626;55.886;2022-12-07T02:45:05;82657.69;;;-145.10;100.00
56334;BME280;42240;53.626;55.886;2022-12-07T02:46:46;82669.59;;;-145.10;100.00
56334;BME280;42240;53.626;55.886;2022-12-07T02:48:23;82685.44;;;-145.10;100.00
56334;BME280;42240;53.626;55.886;2022-12-07T02:49:58;82685.44;;;-145.10;100.00
56334;BME280;42240;53.626;55.886;2022-12-07T02:51:33;82677.50;;;-145.10;100.00
56334;BME280;42240;53.626;55.886;2022-12-07T02:53:32;82655.72;;;-145.10;100.00
56334;BME280;42240;53.626;55.886;2022-12-07T02:55:07;82628.00;;;-145.10;100.00
56334;BME280;42240;53.626;55.886;2022-12-07T02:58:28;82671.56;;;-145.10;100.00
56334;BME280;42240;53.626;55.886;2022-12-07T03:00:19;82671.56;;;-145.10;100.00
56334;BME280;42240;53.626;55.886;2022-12-07T03:03:40;82653.72;;;-145.10;100.00
56334;BME280;42240;53.626;55.886;2022-12-07T03:05:50;82715.13;;;-145.10;100.00
56334;BME280;42240;53.626;55.886;2022-12-07T03:08:06;82637.91;;;-145.10;100.00
56334;BME280;42240;53.626;55.886;2022-12-07T03:09:58;82639.88;;;-145.10;100.00
56334;BME280;42240;53.626;55.886;2022-12-07T03:12:10;82624.03;;;-145.10;100.00
56334;BME280;42240;53.626;55.886;2022-12-07T03:13:58;82631.94;;;-145.10;100.00
56334;BME280;42240;53.626;55.886;2022-12-07T03:15:56;82637.91;;;-145.10;100.00
56334;BME280;42240;53.626;55.886;2022-12-07T03:17:35;82639.88;;;-145.10;100.00
56334;BME280;42240;53.626;55.886;2022-12-07T03:19:15;82671.56;;;-145.10;100.00
56334;BME280;42240;53.626;55.886;2022-12-07T03:20:53;82707.22;;;-145.10;100.00
56334;BME280;42240;53.626;55.886;2022-12-07T03:22:31;82635.91;;;-145.10;100.00
56334;BME280;42240;53.626;55.886;2022-12-07T03:24:09;82647.78;;;-145.10;100.00
56334;BME280;42240;53.626;55.886;2022-12-07T03:25:50;82651.75;;;-145.10;100.00
56334;BME280;42240;53.626;55.886;2022-12-07T03:27:35;82661.66;;;-145.10;100.00
56334;BME280;42240;53.626;55.886;2022-12-07T03:29:17;82665.63;;;-145.10;100.00
56334;BME280;42240;53.626;55.886;2022-12-07T03:31:06;82669.59;;;-145.10;100.00
56334;BME280;42240;53.626;55.886;2022-12-07T03:33:04;82663.63;;;-145.10;100.00
56334;BME280;42240;53.626;55.886;2022-12-07T03:34:46;82661.66;;;-145.10;100.00
56334;BME280;42240;53.626;55.886;2022-12-07T03:36:48;82659.69;;;-145.10;100.00
56334;BME280;42240;53.626;55.886;2022-12-07T03:39:01;82667.59;;;-145.10;100.00
56334;BME280;42240;53.626;55.886;2022-12-07T03:40:50;82675.53;;;-145.10;100.00
56334;BME280;42240;53.626;55.886;2022-12-07T03:42:26;82671.56;;;-145.10;100.00
56334;BME280;42240;53.626;55.886;2022-12-07T03:44:00;82671.56;;;-145.10;100.00
56334;BME280;42240;53.626;55.886;2022-12-07T03:45:41;82671.56;;;-145.10;100.00
56334;BME280;42240;53.626;55.886;2022-12-07T03:47:32;82691.38;;;-145.10;100.00
56334;BME280;42240;53.626;55.886;2022-12-07T03:51:10;82657.69;;;-145.10;100.00
56334;BME280;42240;53.626;55.886;2022-12-07T03:52:58;82655.72;;;-145.10;100.00
56334;BME280;42240;53.626;55.886;2022-12-07T03:54:44;82639.88;;;-145.10;100.00
56334;BME280;42240;53.626;55.886;2022-12-07T03:56:22;82667.59;;;-145.10;100.00
56334;BME280;42240;53.626;55.886;2022-12-07T03:58:05;82667.59;;;-145.10;100.00
56334;BME280;42240;53.626;55.886;2022-12-07T03:59:42;82687.41;;;-145.10;100.00
56334;BME280;42240;53.626;55.886;2022-12-07T04:01:17;82699.28;;;-145.10;100.00
56334;BME280;42240;53.626;55.886;2022-12-07T04:02:52;82675.53;;;-145.10;100.00
56334;BME280;42240;53.626;55.886;2022-12-07T04:04:26;82667.59;;;-145.10;100.00
56334;BME280;42240;53.626;55.886;2022-12-07T04:06:00;82663.63;;;-145.10;100.00
56334;BME280;42240;53.626;55.886;2022-12-07T04:07:34;82657.69;;;-145.10;100.00
56334;BME280;42240;53.626;55.886;2022-12-07T04:09:08;82663.63;;;-145.10;100.00
56334;BME280;42240;53.626;55.886;2022-12-07T04:10:42;82703.25;;;-145.10;100.00
56334;BME280;42240;53.626;55.886;2022-12-07T04:12:15;82711.16;;;-145.10;100.00
56334;BME280;42240;53.626;55.886;2022-12-07T04:13:49;82715.13;;;-145.10;100.00
56334;BME280;42240;53.626;55.886;2022-12-07T04:15:41;82723.06;;;-145.10;100.00
56334;BME280;42240;53.626;55.886;2022-12-07T04:17:15;82750.78;;;-145.10;100.00
56334;BME280;42240;53.626;55.886;2022-12-07T04:18:49;82758.69;;;-145.10;100.00
56334;BME280;42240;53.626;55.886;2022-12-07T04:20:22;82742.84;;;-145.10;100.00
56334;BME280;42240;53.626;55.886;2022-12-07T04:21:58;82721.06;;;-145.10;100.00
56334;BME280;42240;53.626;55.886;2022-12-07T04:23:32;82697.31;;;-145.10;100.00
56334;BME280;42240;53.626;55.886;2022-12-07T04:25:09;82742.84;;;-145.10;100.00
56334;BME280;42240;53.626;55.886;2022-12-07T04:26:45;82774.53;;;-145.10;100.00
56334;BME280;42240;53.626;55.886;2022-12-07T04:28:18;82762.66;;;-145.10;100.00
56334;BME280;42240;53.626;55.886;2022-12-07T04:29:52;82764.63;;;-145.10;100.00
56334;BME280;42240;53.626;55.886;2022-12-07T04:31:27;82764.63;;;-145.10;100.00
56334;BME280;42240;53.626;55.886;2022-12-07T04:33:01;82786.44;;;-145.10;100.00
56334;BME280;42240;53.626;55.886;2022-12-07T04:34:35;82826.03;;;-145.10;100.00
56334;BME280;42240;53.626;55.886;2022-12-07T04:36:08;82814.16;;;-145.10;100.00
56334;BME280;42240;53.626;55.886;2022-12-07T04:37:42;82812.16;;;-145.10;100.00
56334;BME280;42240;53.626;55.886;2022-12-07T04:39:29;82873.56;;;-145.10;100.00
56334;BME280;42240;53.626;55.886;2022-12-07T04:41:07;82861.69;;;-145.10;100.00
56334;BME280;42240;53.626;55.886;2022-12-07T04:42:42;82885.44;;;-145.10;100.00
56334;BME280;42240;53.626;55.886;2022-12-07T04:44:16;82865.66;;;-145.10;100.00
56334;BME280;42240;53.626;55.886;2022-12-07T04:45:49;82833.97;;;-145.10;100.00
56334;BME280;42240;53.626;55.886;2022-12-07T04:47:24;82830.00;;;-145.10;100.00
56334;BME280;42240;53.626;55.886;2022-12-07T04:48:58;82845.84;;;-145.10;100.00
56334;BME280;42240;53.626;55.886;2022-12-07T04:50:32;82841.88;;;-145.10;100.00
56334;BME280;42240;53.626;55.886;2022-12-07T04:52:06;82835.94;;;-145.10;100.00
56334;BME280;42240;53.626;55.886;2022-12-07T04:53:39;82814.16;;;-145.10;100.00
56334;BME280;42240;53.626;55.886;2022-12-07T04:55:13;82826.03;;;-145.10;100.00
56334;BME280;42240;53.626;55.886;2022-12-07T04:56:47;82808.22;;;-145.10;100.00
56334;BME280;42240;53.626;55.886;2022-12-07T04:58:20;82828.00;;;-145.10;100.00
56334;BME280;42240;53.626;55.886;2022-12-07T04:59:54;82873.56;;;-145.10;100.00
56334;BME280;42240;53.626;55.886;2022-12-07T05:01:28;82883.47;;;-145.10;100.00
56334;BME280;42240;53.626;55.886;2022-12-07T05:03:01;82873.56;;;-145.10;100.00
56334;BME280;42240;53.626;55.886;2022-12-07T05:04:35;82841.88;;;-145.10;100.00
56334;BME280;42240;53.626;55.886;2022-12-07T05:06:09;82835.94;;;-145.10;100.00
56334;BME280;42240;53.626;55.886;2022-12-07T05:07:45;82833.97;;;-145.10;100.00
56334;BME280;42240;53.626;55.886;2022-12-07T05:09:19;82794.34;;;-145.10;100.00
56334;BME280;42240;53.626;55.886;2022-12-07T05:10:53;82855.75;;;-145.10;100.00
56334;BME280;42240;53.626;55.886;2022-12-07T05:12:26;82796.31;;;-145.10;100.00
56334;BME280;42240;53.626;55.886;2022-12-07T05:14:02;82806.22;;;-145.10;100.00
56334;BME280;42240;53.626;55.886;2022-12-07T05:15:36;82810.19;;;-145.10;100.00
56334;BME280;42240;53.626;55.886;2022-12-07T05:17:09;82804.25;;;-145.10;100.00
56334;BME280;42240;53.626;55.886;2022-12-07T05:18:44;82790.38;;;-145.10;100.00
56334;BME280;42240;53.626;55.886;2022-12-07T05:20:18;82788.41;;;-145.10;100.00
56334;BME280;42240;53.626;55.886;2022-12-07T05:21:51;82814.16;;;-145.10;100.00
56334;BME280;42240;53.626;55.886;2022-12-07T05:23:25;82831.97;;;-145.10;100.00
56334;BME280;42240;53.626;55.886;2022-12-07T05:24:59;82820.09;;;-145.10;100.00
56334;BME280;42240;53.626;55.886;2022-12-07T05:26:36;82814.16;;;-145.10;100.00
56334;BME280;42240;53.626;55.886;2022-12-07T05:28:10;82782.47;;;-145.10;100.00
56334;BME280;42240;53.626;55.886;2022-12-07T05:29:43;82746.81;;;-145.10;100.00
56334;BME280;42240;53.626;55.886;2022-12-07T05:31:17;82679.47;;;-145.10;100.00
56334;BME280;42240;53.626;55.886;2022-12-07T05:32:50;82635.91;;;-145.10;100.00
56334;BME280;42240;53.626;55.886;2022-12-07T05:34:24;82620.06;;;-145.10;100.00
56334;BME280;42240;53.626;55.886;2022-12-07T05:35:57;82580.47;;;-145.10;100.00
56334;BME280;42240;53.626;55.886;2022-12-07T05:37:31;82554.72;;;-145.10;100.00
56334;BME280;42240;53.626;55.886;2022-12-07T05:39:05;82544.81;;;-145.10;100.00
56334;BME280;42240;53.626;55.886;2022-12-07T05:40:38;82633.94;;;-145.10;100.00
56334;BME280;42240;53.626;55.886;2022-12-07T05:42:12;82564.63;;;-145.10;100.00
56334;BME280;42240;53.626;55.886;2022-12-07T05:43:45;82580.47;;;-145.10;100.00
56334;BME280;42240;53.626;55.886;2022-12-07T05:45:19;82582.44;;;-145.10;100.00
56334;BME280;42240;53.626;55.886;2022-12-07T05:46:55;82584.44;;;-145.10;100.00
56334;BME280;42240;53.626;55.886;2022-12-07T05:48:28;82576.50;;;-145.10;100.00
56334;BME280;42240;53.626;55.886;2022-12-07T05:50:03;82578.47;;;-145.10;100.00
56334;BME280;42240;53.626;55.886;2022-12-07T05:51:36;82568.59;;;-145.10;100.00
56334;BME280;42240;53.626;55.886;2022-12-07T05:53:10;82568.59;;;-145.10;100.00
56334;BME280;42240;53.626;55.886;2022-12-07T05:54:44;82558.69;;;-145.10;100.00
56334;BME280;42240;53.626;55.886;2022-12-07T05:56:17;82536.91;;;-145.10;100.00
56334;BME280;42240;53.626;55.886;2022-12-07T05:57:52;82513.13;;;-145.10;100.00
56334;BME280;42240;53.626;55.886;2022-12-07T05:59:44;82451.75;;;-145.10;100.00
56334;BME280;42240;53.626;55.886;2022-12-07T06:01:17;82449.75;;;-145.10;100.00
56334;BME280;42240;53.626;55.886;2022-12-07T06:02:51;82441.84;;;-145.10;100.00
56334;BME280;42240;53.626;55.886;2022-12-07T06:04:28;82471.53;;;-145.10;100.00
56334;BME280;42240;53.626;55.886;2022-12-07T06:06:02;82469.56;;;-145.10;100.00
56334;BME280;42240;53.626;55.886;2022-12-07T06:07:36;82457.69;;;-145.10;100.00
56334;BME280;42240;53.626;55.886;2022-12-07T06:09:10;82427.97;;;-145.10;100.00
56334;BME280;42240;53.626;55.886;2022-12-07T06:10:43;82390.34;;;-145.10;100.00
56334;BME280;42240;53.626;55.886;2022-12-07T06:12:17;82374.50;;;-145.10;100.00
56334;BME280;42240;53.626;55.886;2022-12-07T06:14:08;82338.88;;;-145.10;100.00
56334;BME280;42240;53.626;55.886;2022-12-07T06:15:42;82342.81;;;-145.10;100.00
56334;BME280;42240;53.626;55.886;2022-12-07T06:17:15;82406.19;;;-145.10;100.00
56334;BME280;42240;53.626;55.886;2022-12-07T06:18:51;82342.81;;;-145.10;100.00
56334;BME280;42240;53.626;55.886;2022-12-07T06:20:24;82299.25;;;-145.10;100.00
56334;BME280;42240;53.626;55.886;2022-12-07T06:21:58;82315.09;;;-145.10;100.00
56334;BME280;42240;53.626;55.886;2022-12-07T06:23:32;82279.47;;;-145.10;100.00
56334;BME280;42240;53.626;55.886;2022-12-07T06:25:06;82374.50;;;-145.10;100.00
56334;BME280;42240;53.626;55.886;2022-12-07T06:26:41;82374.50;;;-145.10;100.00
56334;BME280;42240;53.626;55.886;2022-12-07T06:28:14;82408.19;;;-145.10;100.00
56334;BME280;42240;53.626;55.886;2022-12-07T06:29:47;82396.28;;;-145.10;100.00
56334;BME280;42240;53.626;55.886;2022-12-07T06:31:22;82416.09;;;-145.10;100.00
56334;BME280;42240;53.626;55.886;2022-12-07T06:32:55;82388.38;;;-145.10;100.00
56334;BME280;42240;53.626;55.886;2022-12-07T06:34:29;82406.19;;;-145.10;100.00
56334;BME280;42240;53.626;55.886;2022-12-07T06:36:03;82382.44;;;-145.10;100.00
56334;BME280;42240;53.626;55.886;2022-12-07T06:37:37;82342.81;;;-145.10;100.00
56334;BME280;42240;53.626;55.886;2022-12-07T06:39:10;82311.16;;;-145.10;100.00
56334;BME280;42240;53.626;55.886;2022-12-07T06:40:45;82295.31;;;-145.10;100.00
56334;BME280;42240;53.626;55.886;2022-12-07T06:42:19;82255.69;;;-145.10;100.00
56334;BME280;42240;53.626;55.886;2022-12-07T06:43:52;82255.69;;;-145.10;100.00
56334;BME280;42240;53.626;55.886;2022-12-07T06:45:28;82410.16;;;-145.10;100.00
56334;BME280;42240;53.626;55.886;2022-12-07T06:47:01;82299.25;;;-145.10;100.00
56334;BME280;42240;53.626;55.886;2022-12-07T06:48:55;82263.63;;;-145.10;100.00
56334;BME280;42240;53.626;55.886;2022-12-07T06:50:28;82273.53;;;-145.10;100.00
56334;BME280;42240;53.626;55.886;2022-12-07T06:52:05;82259.66;;;-145.10;100.00
56334;BME280;42240;53.626;55.886;2022-12-07T06:53:38;82224.00;;;-145.10;100.00
56334;BME280;42240;53.626;55.886;2022-12-07T06:55:12;82210.16;;;-145.10;100.00
56334;BME280;42240;53.626;55.886;2022-12-07T06:56:45;82208.19;;;-145.10;100.00
56334;BME280;42240;53.626;55.886;2022-12-07T06:58:19;82204.22;;;-145.10;100.00
56334;BME280;42240;53.626;55.886;2022-12-07T06:59:53;82182.44;;;-145.10;100.00
56334;BME280;42240;53.626;55.886;2022-12-07T07:01:30;82160.66;;;-145.10;100.00
56334;BME280;42240;53.626;55.886;2022-12-07T07:03:03;82186.41;;;-145.10;100.00
56334;BME280;42240;53.626;55.886;2022-12-07T07:04:37;82144.81;;;-145.10;100.00
56334;BME280;42240;53.626;55.886;2022-12-07T07:06:12;82136.88;;;-145.10;100.00
56334;BME280;42240;53.626;55.886;2022-12-07T07:07:45;82140.84;;;-145.10;100.00
56334;BME280;42240;53.626;55.886;2022-12-07T07:09:42;82156.69;;;-145.10;100.00
56334;BME280;42240;53.626;55.886;2022-12-07T07:11:16;82144.81;;;-145.10;100.00
56334;BME280;42240;53.626;55.886;2022-12-07T07:12:50;82123.03;;;-145.10;100.00
56334;BME280;42240;53.626;55.886;2022-12-07T07:14:29;82146.78;;;-145.10;100.00
56334;BME280;42240;53.626;55.886;2022-12-07T07:16:03;82140.84;;;-145.10;100.00
56334;BME280;42240;53.626;55.886;2022-12-07T07:17:37;82113.13;;;-145.10;100.00
56334;BME280;42240;53.626;55.886;2022-12-07T07:19:11;82109.16;;;-145.10;100.00
56334;BME280;42240;53.626;55.886;2022-12-07T07:20:44;82103.22;;;-145.10;100.00
56334;BME280;42240;53.626;55.886;2022-12-07T07:22:18;82095.31;;;-145.10;100.00
56334;BME280;42240;53.626;55.886;2022-12-07T07:23:52;82081.44;;;-145.10;100.00
56334;BME280;42240;53.626;55.886;2022-12-07T07:25:25;82065.59;;;-145.10;100.00
56334;BME280;42240;53.626;55.886;2022-12-07T07:26:59;82057.69;;;-145.10;100.00
56334;BME280;42240;53.626;55.886;2022-12-07T07:28:33;82061.66;;;-145.10;100.00
56334;BME280;42240;53.626;55.886;2022-12-07T07:30:07;82097.28;;;-145.10;100.00
56334;BME280;42240;53.626;55.886;2022-12-07T07:31:41;82061.66;;;-145.10;100.00
56334;BME280;42240;53.626;55.886;2022-12-07T07:33:15;82073.53;;;-145.10;100.00
56334;BME280;42240;53.626;55.886;2022-12-07T07:34:48;82069.56;;;-145.10;100.00
56334;BME280;42240;53.626;55.886;2022-12-07T07:36:22;82051.75;;;-145.10;100.00
56334;BME280;42240;53.626;55.886;2022-12-07T07:37:56;82047.78;;;-145.10;100.00
56334;BME280;42240;53.626;55.886;2022-12-07T07:39:30;82039.88;;;-145.10;100.00
56334;BME280;42240;53.626;55.886;2022-12-07T07:41:03;82037.88;;;-145.10;100.00
56334;BME280;42240;53.626;55.886;2022-12-07T07:42:37;82037.88;;;-145.10;100.00
56334;BME280;42240;53.626;55.886;2022-12-07T07:44:11;82045.81;;;-145.10;100.00
56334;BME280;42240;53.626;55.886;2022-12-07T07:45:45;82063.63;;;-145.10;100.00
56334;BME280;42240;53.626;55.886;2022-12-07T07:47:18;82053.72;;;-145.10;100.00
56334;BME280;42240;53.626;55.886;2022-12-07T07:48:52;82065.59;;;-145.10;100.00
56334;BME280;42240;53.626;55.886;2022-12-07T07:50:28;82077.47;;;-145.10;100.00
56334;BME280;42240;53.626;55.886;2022-12-07T07:52:02;82101.25;;;-145.10;100.00
56334;BME280;42240;53.626;55.886;2022-12-07T07:53:35;82158.66;;;-145.10;100.00
56334;BME280;42240;53.626;55.886;2022-12-07T07:55:10;82119.06;;;-145.10;100.00
56334;BME280;42240;53.626;55.886;2022-12-07T07:56:44;82117.09;;;-145.10;100.00
56334;BME280;42240;53.626;55.886;2022-12-07T07:58:18;82123.03;;;-145.10;100.00
56334;BME280;42240;53.626;55.886;2022-12-07T07:59:51;82128.97;;;-145.10;100.00
56334;BME280;42240;53.626;55.886;2022-12-07T08:01:25;82103.22;;;-145.10;100.00
56334;BME280;42240;53.626;55.886;2022-12-07T08:02:58;82107.19;;;-145.10;100.00
56334;BME280;42240;53.626;55.886;2022-12-07T08:04:32;82132.94;;;-145.10;100.00
56334;BME280;42240;53.626;55.886;2022-12-07T08:06:06;82113.13;;;-145.10;100.00
56334;BME280;42240;53.626;55.886;2022-12-07T08:07:40;82103.22;;;-145.10;100.00
56334;BME280;42240;53.626;55.886;2022-12-07T08:09:14;82097.28;;;-145.10;100.00
56334;BME280;42240;53.626;55.886;2022-12-07T08:10:48;82107.19;;;-145.10;100.00
56334;BME280;42240;53.626;55.886;2022-12-07T08:12:21;82101.25;;;-145.10;100.00
56334;BME280;42240;53.626;55.886;2022-12-07T08:13:55;82065.59;;;-145.10;100.00
56334;BME280;42240;53.626;55.886;2022-12-07T08:15:30;82097.28;;;-145.10;100.00
56334;BME280;42240;53.626;55.886;2022-12-07T08:17:03;82022.03;;;-145.10;100.00
56334;BME280;42240;53.626;55.886;2022-12-07T08:18:40;82026.00;;;-145.10;100.00
56334;BME280;42240;53.626;55.886;2022-12-07T08:20:17;82035.91;;;-145.10;100.00
56334;BME280;42240;53.626;55.886;2022-12-07T08:21:53;82061.66;;;-145.10;100.00
56334;BME280;42240;53.626;55.886;2022-12-07T08:23:35;82065.59;;;-145.10;100.00
56334;BME280;42240;53.626;55.886;2022-12-07T08:25:12;82073.53;;;-145.10;100.00